メインページ
METAR-TAF:

METAR-TAF

空港 :

Wawa, オンタリオ州, カナダ

緯度: 47-58N, 経度: 084-47W, 海抜: 287m

現時点の気象観測

当レポートは5時間50分前の00:00(UTC)に作成
南/南東の風 3kt、南/南東から南/南西の間で変化する
気温 5°C
湿度 56%
気圧 1017 hPa
視程: 24.1km
晴天

METAR: CYXZ 040000Z 16003KT 150V210 15SM SKC 05/M03 A3003 RMK LAST OBS/NEXT 041100UTC SLP184

時間: 01:50 (05:50 UTC)

予報

当レポートは10時間4分前の19:46(UTC)に作成
予報は03日の 20時(UTC)から 03日の 24時(UTC)まで有効
変向風 3kt
視程: 10km
晴天

TAF: CYXZ 031946Z 0320/0324 VRB03KT P6SM SKC RMK NXT FCST WILL BE ISSUED AT 041245Z

4,000以上の空港の気象観測と天気予報(METAR報とTAF報)

利用可能な観測所は地図上に黄色い丸と赤い丸で示す。

丸の上にカーソルを重ねると観測所名を参照できる。

次にクリックすると気象観測と天気予報を参照できる。

マップの切り替え:黒色「×」印の緑ボタンをクリックして拡大、「-」印の緑ボタンをクリックして縮小、緑色の三角印をクリックして隣りの地図に切り替え


METAR-TAF: